Time;durP1;ratioP1;P1;durP2;ratioP2;P2;SDS_P1;SDS_P2;PMS_P1;PMS_P2;Temp;Humidity;BMP_temperature;BMP_pressure;BME280_temperature;BME280_humidity;BME280_pressure;Samples;Min_cycle;Max_cycle;Signal;HPM_P1;HPM_P2
2022/05/31 00:00:17;;;;;;;3.20;2.93;;;11.20;92.00;;;;;;4974434;28;20577;-82
2022/05/31 00:02:46;;;;;;;3.20;2.97;;;11.20;92.30;;;;;;4974726;28;20474;-83
2022/05/31 00:05:14;;;;;;;3.20;2.93;;;11.20;92.50;;;;;;4975064;28;20455;-83
2022/05/31 00:07:42;;;;;;;3.30;3.10;;;11.10;92.70;;;;;;4974491;28;20483;-82
2022/05/31 00:10:11;;;;;;;3.50;3.10;;;11.10;92.90;;;;;;4974366;28;21027;-83
2022/05/31 00:12:40;;;;;;;3.23;2.93;;;11.00;92.90;;;;;;4974358;28;20458;-83
2022/05/31 00:15:09;;;;;;;2.90;2.60;;;11.00;93.20;;;;;;4974968;28;20463;-83
2022/05/31 00:17:36;;;;;;;4.10;3.80;;;11.00;93.50;;;;;;4974478;28;20495;-83
2022/05/31 00:20:04;;;;;;;3.43;2.80;;;11.00;93.70;;;;;;4974835;28;20522;-83
2022/05/31 00:22:34;;;;;;;3.07;2.87;;;10.90;93.90;;;;;;4974289;28;20462;-82
2022/05/31 00:25:01;;;;;;;3.67;3.30;;;10.90;94.20;;;;;;4974781;28;20944;-83
2022/05/31 00:27:29;;;;;;;3.57;3.33;;;10.80;94.40;;;;;;4973659;28;20482;-83
2022/05/31 00:29:57;;;;;;;3.57;3.27;;;10.80;94.60;;;;;;4980275;28;20823;-82
2022/05/31 00:32:27;;;;;;;4.20;2.83;;;10.80;94.80;;;;;;4985940;28;20450;-82
2022/05/31 00:34:57;;;;;;;3.47;3.27;;;10.70;95.00;;;;;;4985484;28;20461;-82
2022/05/31 00:37:24;;;;;;;3.43;2.83;;;10.70;95.10;;;;;;4985922;28;20494;-82
2022/05/31 00:39:51;;;;;;;3.73;3.47;;;10.60;95.20;;;;;;4985239;28;20453;-82
2022/05/31 00:42:20;;;;;;;3.40;3.20;;;10.60;95.70;;;;;;4985321;28;20465;-82
2022/05/31 00:44:47;;;;;;;3.00;2.50;;;10.50;96.00;;;;;;4985675;28;20485;-82
2022/05/31 00:47:18;;;;;;;5.57;3.20;;;10.50;96.30;;;;;;4985819;28;20473;-82
2022/05/31 00:49:49;;;;;;;2.67;2.47;;;10.40;96.50;;;;;;4985359;28;20450;-82
2022/05/31 00:52:22;;;;;;;2.90;2.70;;;10.40;96.60;;;;;;4984905;28;20214;-82
2022/05/31 00:54:52;;;;;;;4.63;3.37;;;10.40;97.00;;;;;;4984955;28;20461;-82
2022/05/31 00:57:19;;;;;;;4.10;3.80;;;10.40;97.30;;;;;;4984484;28;20490;-82
2022/05/31 00:59:49;;;;;;;3.00;2.80;;;10.20;97.50;;;;;;4984438;28;20450;-81
2022/05/31 01:02:19;;;;;;;3.33;3.08;;;10.20;97.80;;;;;;4985144;28;20458;-82
2022/05/31 01:04:49;;;;;;;3.47;3.17;;;10.00;98.60;;;;;;4985706;28;20219;-82
2022/05/31 01:07:16;;;;;;;3.70;3.40;;;10.00;99.00;;;;;;4985189;28;20235;-81
2022/05/31 01:09:43;;;;;;;3.90;3.60;;;10.00;99.20;;;;;;4965680;28;20463;-82
2022/05/31 01:12:11;;;;;;;3.73;3.43;;;10.00;99.20;;;;;;4965734;28;20454;-82
2022/05/31 01:14:40;;;;;;;3.27;3.07;;;10.00;99.50;;;;;;4965439;28;20440;-82
2022/05/31 01:17:10;;;;;;;3.63;3.33;;;10.00;99.40;;;;;;4965780;28;20849;-81
2022/05/31 01:19:56;;;;;;;3.83;3.53;;;10.00;99.40;;;;;;4984823;28;20210;-82
2022/05/31 01:22:27;;;;;;;3.17;2.97;;;9.90;99.90;;;;;;4984426;28;20287;-82
2022/05/31 01:25:00;;;;;;;4.47;4.07;;;9.90;99.90;;;;;;4985330;28;21085;-82
2022/05/31 01:27:38;;;;;;;3.53;3.30;;;9.90;99.90;;;;;;4984101;28;20479;-82
2022/05/31 01:30:08;;;;;;;6.30;3.67;;;9.90;99.90;;;;;;4984756;28;20466;-82
2022/05/31 01:32:39;;;;;;;4.13;3.47;;;9.90;99.90;;;;;;4985102;28;20458;-83
2022/05/31 01:35:11;;;;;;;4.00;3.70;;;9.90;99.90;;;;;;4981487;28;20454;-83
2022/05/31 01:37:47;;;;;;;5.03;3.70;;;9.90;99.90;;;;;;4981388;28;20229;-83
2022/05/31 01:40:19;;;;;;;3.50;3.30;;;10.00;99.90;;;;;;4983153;28;20218;-83
2022/05/31 01:42:48;;;;;;;3.97;3.67;;;10.00;99.90;;;;;;4984874;28;20217;-83
2022/05/31 01:45:18;;;;;;;3.70;3.40;;;10.00;99.90;;;;;;4978070;28;20461;-83
2022/05/31 01:47:45;;;;;;;3.90;3.50;;;10.00;99.90;;;;;;4977430;28;20496;-83
2022/05/31 01:50:16;;;;;;;3.40;3.20;;;10.00;99.90;;;;;;4977335;28;20454;-82
2022/05/31 01:52:46;;;;;;;3.63;3.37;;;10.00;99.90;;;;;;4977321;28;20466;-83
2022/05/31 01:55:14;;;;;;;4.03;3.63;;;10.00;99.90;;;;;;4977674;28;20519;-83
2022/05/31 01:57:42;;;;;;;4.13;3.70;;;10.00;99.90;;;;;;4977562;28;20498;-83
2022/05/31 02:00:12;;;;;;;4.40;3.27;;;10.10;99.90;;;;;;4977175;28;21221;-82
2022/05/31 02:02:39;;;;;;;3.22;3.00;;;10.10;99.90;;;;;;4977889;28;20454;-82
2022/05/31 02:05:07;;;;;;;3.70;3.40;;;10.10;99.90;;;;;;4977125;28;20679;-83
2022/05/31 02:07:34;;;;;;;4.03;3.80;;;9.90;99.90;;;;;;4977037;28;20502;-83
2022/05/31 02:10:02;;;;;;;3.40;3.20;;;9.70;99.90;;;;;;4977266;28;20543;-82
2022/05/31 02:12:31;;;;;;;3.88;3.42;;;9.70;99.90;;;;;;4977097;28;20210;-82
2022/05/31 02:14:58;;;;;;;3.30;3.10;;;9.80;99.90;;;;;;4977838;28;20238;-83
2022/05/31 02:17:25;;;;;;;4.03;3.77;;;9.70;99.90;;;;;;4976840;28;20490;-82
2022/05/31 02:19:52;;;;;;;3.28;3.08;;;9.80;99.90;;;;;;4977148;28;20461;-83
2022/05/31 02:22:22;;;;;;;3.20;2.90;;;9.80;99.90;;;;;;4977040;28;20556;-82
2022/05/31 02:24:49;;;;;;;4.03;3.65;;;9.70;99.90;;;;;;4977316;28;20589;-82
2022/05/31 02:27:18;;;;;;;4.05;3.65;;;9.60;99.90;;;;;;4977327;28;20227;-83
2022/05/31 02:29:45;;;;;;;3.78;3.38;;;9.60;99.90;;;;;;4977190;28;20207;-82
2022/05/31 02:32:14;;;;;;;2.97;2.77;;;9.50;99.90;;;;;;4976840;28;20232;-83
2022/05/31 02:34:43;;;;;;;3.63;3.37;;;9.50;99.90;;;;;;4976766;28;21041;-82
2022/05/31 02:37:11;;;;;;;3.30;3.10;;;9.40;99.90;;;;;;4977022;28;20857;-83
2022/05/31 02:39:38;;;;;;;3.30;3.03;;;9.40;99.90;;;;;;4977011;28;20236;-82
2022/05/31 02:42:06;;;;;;;2.97;2.88;;;9.30;99.90;;;;;;4976946;28;20216;-82
2022/05/31 02:44:34;;;;;;;4.35;3.95;;;9.30;99.90;;;;;;4976941;28;20206;-83
2022/05/31 02:47:01;;;;;;;3.60;3.40;;;9.30;99.90;;;;;;4977038;28;20233;-83
2022/05/31 02:49:29;;;;;;;4.03;3.53;;;9.40;99.90;;;;;;4976618;28;20211;-82
2022/05/31 02:51:59;;;;;;;3.67;3.45;;;9.30;99.90;;;;;;4975457;28;20689;-83
2022/05/31 02:54:27;;;;;;;3.70;3.40;;;9.40;99.90;;;;;;4976783;28;20207;-83
2022/05/31 02:56:54;;;;;;;4.05;3.65;;;9.40;99.90;;;;;;4976557;28;20239;-83
2022/05/31 02:59:21;;;;;;;3.20;3.00;;;9.40;99.90;;;;;;4976439;28;20211;-83
2022/05/31 03:01:50;;;;;;;3.07;2.87;;;9.40;99.90;;;;;;4976557;28;20480;-82
2022/05/31 03:04:17;;;;;;;3.30;3.10;;;9.40;99.90;;;;;;4977092;28;20465;-83
2022/05/31 03:06:45;;;;;;;3.65;3.35;;;9.40;99.90;;;;;;4976857;28;20704;-83
2022/05/31 03:09:12;;;;;;;3.70;3.17;;;9.30;99.90;;;;;;4976910;28;20222;-82
2022/05/31 03:11:42;;;;;;;3.40;3.20;;;9.30;99.90;;;;;;4976708;28;20225;-83
2022/05/31 03:14:14;;;;;;;3.40;3.17;;;9.30;99.90;;;;;;4977067;28;20829;-82
2022/05/31 03:16:43;;;;;;;3.70;3.50;;;9.30;99.90;;;;;;4976980;28;20233;-82
2022/05/31 03:19:17;;;;;;;3.38;3.05;;;9.30;99.90;;;;;;4977208;28;20467;-83
2022/05/31 03:21:47;;;;;;;3.63;3.33;;;9.20;99.90;;;;;;4976340;28;20201;-83
2022/05/31 03:24:21;;;;;;;3.77;3.47;;;9.20;99.90;;;;;;4976874;28;20216;-83
2022/05/31 03:26:49;;;;;;;5.53;3.45;;;9.20;99.90;;;;;;4976595;28;20477;-82
2022/05/31 03:29:16;;;;;;;3.07;2.87;;;9.10;99.90;;;;;;4976818;28;20210;-83
2022/05/31 03:31:43;;;;;;;3.20;3.00;;;9.10;99.90;;;;;;4975904;28;20467;-83
2022/05/31 03:34:12;;;;;;;3.40;3.20;;;9.10;99.90;;;;;;4976200;28;20815;-82
2022/05/31 03:36:38;;;;;;;4.10;3.15;;;9.10;99.90;;;;;;4976403;28;20483;-83
2022/05/31 03:39:06;;;;;;;4.45;4.03;;;9.10;99.90;;;;;;4976359;28;20239;-83
2022/05/31 03:41:36;;;;;;;6.18;3.33;;;9.10;99.90;;;;;;4975533;28;20202;-83
2022/05/31 03:44:03;;;;;;;3.40;3.20;;;9.20;99.90;;;;;;4976394;28;20675;-82
2022/05/31 03:46:30;;;;;;;3.53;3.22;;;9.20;99.90;;;;;;4975810;28;20722;-82
2022/05/31 03:48:56;;;;;;;4.90;3.47;;;9.30;99.90;;;;;;4976061;28;20212;-82
2022/05/31 03:51:24;;;;;;;3.50;3.30;;;9.30;99.90;;;;;;4977443;28;20464;-83
2022/05/31 03:53:51;;;;;;;3.90;3.60;;;9.40;99.90;;;;;;4993026;28;20455;-82
2022/05/31 03:56:18;;;;;;;4.00;3.70;;;9.40;99.90;;;;;;4993502;28;20478;-82
2022/05/31 03:58:45;;;;;;;3.95;3.65;;;9.40;99.90;;;;;;4992620;28;20493;-82
2022/05/31 04:01:12;;;;;;;3.70;3.50;;;9.40;99.90;;;;;;4993639;28;20209;-82
2022/05/31 04:03:39;;;;;;;3.50;3.30;;;9.40;99.90;;;;;;4995119;28;20238;-82
2022/05/31 04:06:06;;;;;;;4.00;3.60;;;9.40;99.90;;;;;;4994487;28;20265;-82
2022/05/31 04:08:34;;;;;;;5.05;3.70;;;9.30;99.90;;;;;;4993740;28;20741;-82
2022/05/31 04:11:01;;;;;;;3.80;3.50;;;9.40;99.90;;;;;;4993173;28;20685;-82
2022/05/31 04:13:28;;;;;;;4.50;4.13;;;9.40;99.90;;;;;;4995579;28;20208;-81
2022/05/31 04:16:07;;;;;;;4.00;3.70;;;9.30;99.90;;;;;;4995403;28;20441;-82
2022/05/31 04:18:34;;;;;;;3.80;3.50;;;9.40;99.90;;;;;;4993318;28;20484;-82
2022/05/31 04:21:02;;;;;;;3.33;3.13;;;9.30;99.90;;;;;;4992812;28;20275;-82
2022/05/31 04:26:15;;;;;;;3.88;3.67;;;9.30;99.90;;;;;;4995524;28;20490;-82
2022/05/31 04:28:42;;;;;;;4.22;3.92;;;9.30;99.90;;;;;;4994775;28;20224;-81
2022/05/31 04:31:09;;;;;;;4.80;4.40;;;9.30;99.90;;;;;;4993350;28;20213;-81
2022/05/31 04:33:37;;;;;;;4.75;4.45;;;9.30;99.90;;;;;;4993419;28;20458;-82
2022/05/31 04:36:06;;;;;;;4.85;3.85;;;9.30;99.90;;;;;;4992754;28;20202;-82
2022/05/31 04:38:33;;;;;;;4.78;4.15;;;9.40;99.90;;;;;;4992779;28;20246;-82
2022/05/31 04:41:00;;;;;;;4.47;4.00;;;9.50;99.90;;;;;;4992977;28;20221;-82
2022/05/31 04:43:28;;;;;;;4.30;4.00;;;9.50;99.90;;;;;;4992487;28;21023;-82
2022/05/31 04:45:55;;;;;;;4.27;3.80;;;9.60;99.90;;;;;;4992498;28;20477;-82
2022/05/31 04:48:22;;;;;;;3.73;3.43;;;9.60;99.90;;;;;;4974923;28;20479;-83
2022/05/31 04:50:49;;;;;;;3.97;3.67;;;9.60;99.90;;;;;;4974861;28;20454;-83
2022/05/31 04:53:15;;;;;;;3.67;3.43;;;9.70;99.90;;;;;;4974882;28;20450;-82
2022/05/31 04:55:42;;;;;;;4.07;3.77;;;9.60;99.90;;;;;;4977261;28;20468;-84
2022/05/31 04:58:09;;;;;;;4.10;3.80;;;9.70;99.90;;;;;;4981535;28;20868;-83
2022/05/31 05:00:37;;;;;;;4.28;3.92;;;9.80;99.90;;;;;;4982038;28;20457;-83
2022/05/31 05:03:04;;;;;;;6.53;3.93;;;9.80;99.90;;;;;;4982181;28;20601;-83
2022/05/31 05:05:33;;;;;;;3.77;3.50;;;9.90;99.90;;;;;;4981764;28;20461;-83
2022/05/31 05:08:00;;;;;;;5.17;4.70;;;10.00;99.90;;;;;;4981187;28;20479;-83
2022/05/31 05:10:27;;;;;;;4.27;3.90;;;10.10;99.90;;;;;;4981676;28;20453;-83
2022/05/31 05:12:53;;;;;;;4.27;3.97;;;10.20;99.90;;;;;;4981681;28;20462;-83
2022/05/31 05:15:20;;;;;;;4.90;4.50;;;10.30;99.90;;;;;;4980849;28;20483;-83
2022/05/31 05:17:50;;;;;;;6.90;3.70;;;10.30;99.90;;;;;;4981573;28;20494;-83
2022/05/31 05:20:17;;;;;;;6.87;4.53;;;10.50;99.90;;;;;;4981731;28;20454;-83
2022/05/31 05:22:43;;;;;;;4.20;3.80;;;10.60;99.90;;;;;;4982033;28;20531;-83
2022/05/31 05:25:10;;;;;;;4.80;4.40;;;10.70;99.90;;;;;;4981156;28;20458;-83
2022/05/31 05:27:38;;;;;;;5.00;4.50;;;10.80;99.90;;;;;;4981915;28;20510;-83
2022/05/31 05:32:54;;;;;;;4.73;4.07;;;11.10;99.90;;;;;;4980108;28;20824;-83
2022/05/31 05:35:21;;;;;;;5.47;4.03;;;11.20;99.90;;;;;;4981307;28;20459;-83
2022/05/31 05:37:48;;;;;;;5.43;4.30;;;11.30;99.90;;;;;;4980779;28;20526;-83
2022/05/31 05:40:15;;;;;;;6.00;5.57;;;11.50;99.60;;;;;;4982938;28;20462;-83
2022/05/31 05:42:42;;;;;;;7.63;3.93;;;11.60;99.50;;;;;;4981226;28;20454;-83
2022/05/31 05:45:10;;;;;;;4.23;3.70;;;11.80;99.10;;;;;;4979428;28;20444;-82
2022/05/31 05:47:38;;;;;;;3.77;3.53;;;12.00;98.80;;;;;;4968963;28;20482;-83
2022/05/31 05:50:08;;;;;;;3.93;3.63;;;12.10;98.60;;;;;;4979928;28;20853;-83
2022/05/31 05:52:35;;;;;;;4.40;4.00;;;12.30;98.00;;;;;;4980100;28;20549;-83
2022/05/31 05:55:02;;;;;;;4.57;4.17;;;12.50;97.70;;;;;;4980688;28;20478;-83
2022/05/31 05:57:29;;;;;;;3.37;3.07;;;12.60;97.40;;;;;;4979535;28;20471;-83
2022/05/31 05:59:56;;;;;;;3.83;3.63;;;12.60;97.80;;;;;;4980345;28;20491;-83
2022/05/31 06:02:28;;;;;;;3.40;3.20;;;12.80;97.50;;;;;;4979444;28;20463;-82
2022/05/31 06:04:59;;;;;;;6.70;4.33;;;12.80;97.50;;;;;;4972497;28;20452;-83
2022/05/31 06:07:30;;;;;;;6.30;3.40;;;12.90;97.20;;;;;;4967413;28;20480;-82
2022/05/31 06:09:59;;;;;;;3.77;3.57;;;13.10;96.70;;;;;;4969434;28;20447;-83
2022/05/31 06:12:29;;;;;;;3.80;3.50;;;13.20;96.80;;;;;;4972258;28;20448;-83
2022/05/31 06:14:59;;;;;;;3.67;3.30;;;13.40;96.30;;;;;;4967667;28;20456;-83
2022/05/31 06:17:31;;;;;;;3.17;2.93;;;13.50;96.50;;;;;;4968963;28;20475;-83
2022/05/31 06:20:02;;;;;;;3.97;3.57;;;13.70;96.30;;;;;;4973947;28;21072;-84
2022/05/31 06:22:31;;;;;;;3.70;3.40;;;13.70;96.40;;;;;;4981722;28;20522;-83
2022/05/31 06:24:58;;;;;;;9.10;3.47;;;13.80;96.30;;;;;;4978141;28;20980;-79
2022/05/31 06:27:25;;;;;;;3.80;3.50;;;13.90;96.40;;;;;;4982428;28;20847;-81
2022/05/31 06:29:52;;;;;;;4.70;3.47;;;14.10;97.40;;;;;;4982077;28;20458;-79
2022/05/31 06:32:19;;;;;;;3.50;3.20;;;14.30;96.50;;;;;;4981670;28;20480;-81
2022/05/31 06:34:46;;;;;;;8.90;4.23;;;14.50;96.20;;;;;;4982406;28;20472;-80
2022/05/31 06:37:14;;;;;;;5.40;4.87;;;14.70;94.00;;;;;;4982071;28;20492;-81
2022/05/31 06:39:45;;;;;;;6.03;3.90;;;14.70;94.60;;;;;;4981353;28;20505;-82
2022/05/31 06:42:13;;;;;;;4.90;3.20;;;14.90;95.80;;;;;;4974736;28;20946;-81
2022/05/31 06:44:41;;;;;;;4.13;3.80;;;15.20;95.80;;;;;;4973372;28;20453;-81
2022/05/31 06:47:09;;;;;;;5.20;4.70;;;15.40;95.20;;;;;;4970246;28;20557;-82
2022/05/31 06:49:36;;;;;;;5.10;3.97;;;15.70;93.40;;;;;;4971645;28;20442;-81
2022/05/31 06:57:38;;;;;;;5.00;4.03;;;16.20;92.90;;;;;;4970527;28;20517;-81
2022/05/31 07:00:06;;;;;;;6.40;3.80;;;16.30;92.50;;;;;;4979363;28;20490;-82
2022/05/31 07:02:33;;;;;;;4.53;4.13;;;16.40;91.90;;;;;;4978049;28;20445;-81
2022/05/31 07:05:00;;;;;;;5.53;4.43;;;16.30;92.00;;;;;;4980136;28;20456;-81
2022/05/31 07:07:26;;;;;;;4.10;3.70;;;16.30;91.90;;;;;;4976818;28;20504;-81
2022/05/31 07:09:55;;;;;;;10.43;4.57;;;16.20;91.60;;;;;;4980439;28;20438;-81
2022/05/31 07:12:21;;;;;;;5.23;3.73;;;16.10;91.70;;;;;;4977152;28;20450;-81
2022/05/31 07:14:48;;;;;;;3.77;3.33;;;16.00;92.10;;;;;;4979846;28;20451;-81
2022/05/31 07:17:15;;;;;;;5.07;4.67;;;16.00;92.70;;;;;;4987439;28;20479;-81
2022/05/31 07:19:42;;;;;;;3.93;3.50;;;16.00;92.50;;;;;;4990520;28;20481;-81
2022/05/31 07:22:15;;;;;;;5.60;4.07;;;16.00;92.60;;;;;;4992537;28;20460;-84
2022/05/31 07:24:41;;;;;;;3.20;2.90;;;16.10;92.80;;;;;;4992719;28;20517;-80
2022/05/31 07:27:09;;;;;;;5.43;3.83;;;16.30;93.10;;;;;;4973556;28;20497;-79
2022/05/31 07:29:36;;;;;;;2.67;2.57;;;16.50;92.70;;;;;;4972094;28;20438;-78
2022/05/31 07:32:03;;;;;;;3.00;2.80;;;16.60;92.00;;;;;;4983748;28;20450;-79
2022/05/31 07:34:30;;;;;;;3.87;3.67;;;16.90;91.20;;;;;;4990694;28;20522;-79
2022/05/31 07:36:57;;;;;;;2.73;2.50;;;16.90;90.70;;;;;;4991575;28;20477;-79
2022/05/31 07:39:23;;;;;;;2.60;2.47;;;16.90;90.30;;;;;;4992082;28;20488;-79
2022/05/31 07:41:52;;;;;;;3.73;2.43;;;17.00;90.30;;;;;;4979612;28;20456;-79
2022/05/31 07:44:20;;;;;;;5.20;3.17;;;17.30;90.30;;;;;;4972654;28;20454;-79
2022/05/31 07:46:47;;;;;;;3.60;2.50;;;17.40;89.80;;;;;;4974416;28;20487;-80
2022/05/31 07:49:15;;;;;;;3.90;2.30;;;17.60;90.50;;;;;;4990824;28;20458;-79
2022/05/31 07:51:43;;;;;;;2.30;2.10;;;17.80;86.90;;;;;;4991681;28;20451;-80
2022/05/31 07:54:09;;;;;;;1.90;1.80;;;17.80;87.10;;;;;;4992282;28;20454;-80
2022/05/31 07:56:38;;;;;;;4.83;2.40;;;17.90;86.60;;;;;;4990436;28;20470;-84
2022/05/31 07:59:06;;;;;;;1.83;1.73;;;17.70;86.20;;;;;;4981027;28;20550;-81
2022/05/31 08:01:34;;;;;;;2.13;2.03;;;17.60;86.20;;;;;;4982835;28;20464;-83
2022/05/31 08:04:01;;;;;;;2.83;2.00;;;17.60;86.80;;;;;;4986956;28;20514;-79
2022/05/31 08:06:31;;;;;;;2.63;2.47;;;17.70;84.60;;;;;;4987572;28;20454;-80
2022/05/31 08:08:58;;;;;;;2.53;2.43;;;17.50;86.40;;;;;;4989574;28;20453;-79
2022/05/31 08:11:27;;;;;;;2.40;2.20;;;17.50;86.30;;;;;;4978513;28;20459;-84
2022/05/31 08:13:54;;;;;;;1.83;1.73;;;17.30;84.60;;;;;;4980368;28;20989;-82
2022/05/31 08:16:22;;;;;;;2.40;2.30;;;17.30;86.50;;;;;;4979055;28;20962;-82
2022/05/31 08:18:51;;;;;;;2.50;2.40;;;17.40;86.70;;;;;;4978111;28;20870;-82
2022/05/31 08:21:21;;;;;;;3.03;2.20;;;17.30;85.10;;;;;;4978184;28;20461;-81
2022/05/31 08:23:48;;;;;;;3.00;2.67;;;17.20;87.10;;;;;;4979262;28;20458;-81
2022/05/31 08:26:15;;;;;;;2.37;2.17;;;17.40;84.50;;;;;;4978052;28;20972;-81
2022/05/31 08:28:41;;;;;;;3.17;1.87;;;17.50;85.30;;;;;;4978330;28;20475;-81
2022/05/31 08:31:10;;;;;;;2.70;2.10;;;17.60;85.40;;;;;;4976763;28;20465;-81
2022/05/31 08:33:38;;;;;;;2.23;2.10;;;17.60;86.40;;;;;;4977797;28;20458;-81
2022/05/31 08:36:08;;;;;;;2.60;2.40;;;17.60;88.40;;;;;;4977828;28;20451;-81
2022/05/31 08:38:35;;;;;;;2.60;2.40;;;17.80;86.70;;;;;;4978115;28;20507;-81
2022/05/31 08:41:10;;;;;;;2.37;2.00;;;17.90;87.30;;;;;;4977448;28;20463;-81
2022/05/31 08:43:48;;;;;;;2.10;2.00;;;18.10;86.50;;;;;;4979976;28;20458;-82
2022/05/31 08:46:22;;;;;;;2.30;1.93;;;18.20;86.70;;;;;;4984348;28;20459;-81
2022/05/31 08:48:58;;;;;;;2.13;2.03;;;18.40;86.50;;;;;;4985889;28;20457;-81
2022/05/31 08:51:55;;;;;;;2.50;1.80;;;18.50;85.60;;;;;;4980803;28;20465;-81
2022/05/31 08:57:31;;;;;;;2.67;2.47;;;18.90;86.40;;;;;;4983821;28;20463;-81
2022/05/31 09:00:04;;;;;;;2.53;2.33;;;19.30;84.50;;;;;;4992771;28;20490;-80
2022/05/31 09:02:35;;;;;;;2.63;2.43;;;19.60;82.70;;;;;;4983811;28;20450;-81
2022/05/31 09:05:04;;;;;;;2.30;2.20;;;19.80;81.50;;;;;;4978940;28;20839;-81
2022/05/31 09:07:39;;;;;;;3.40;2.20;;;20.10;79.90;;;;;;4982399;28;20482;-81
2022/05/31 09:10:11;;;;;;;2.40;1.70;;;20.20;78.90;;;;;;4991385;28;20459;-80
2022/05/31 09:12:45;;;;;;;2.17;2.03;;;20.40;76.70;;;;;;4989227;28;20475;-80
2022/05/31 09:15:17;;;;;;;1.70;1.60;;;20.30;75.90;;;;;;4980403;28;20459;-81
2022/05/31 09:17:54;;;;;;;2.50;2.30;;;20.30;74.90;;;;;;4979183;28;20473;-82
2022/05/31 09:20:31;;;;;;;2.30;2.20;;;20.20;74.70;;;;;;4978292;28;20483;-81
2022/05/31 09:23:00;;;;;;;2.10;2.00;;;20.10;74.50;;;;;;4979107;28;20436;-81
2022/05/31 09:25:28;;;;;;;2.13;2.03;;;20.20;75.60;;;;;;4979261;28;20452;-82
2022/05/31 09:27:55;;;;;;;2.20;2.00;;;20.30;74.30;;;;;;4979950;28;20479;-81
2022/05/31 09:30:26;;;;;;;2.20;2.10;;;20.30;74.10;;;;;;4978481;28;20879;-82
2022/05/31 09:33:09;;;;;;;3.27;2.20;;;20.40;73.60;;;;;;4980098;28;20464;-82
2022/05/31 09:35:59;;;;;;;1.97;1.87;;;20.40;74.00;;;;;;4978951;28;20944;-81
2022/05/31 09:39:01;;;;;;;2.37;2.17;;;20.40;73.30;;;;;;4977845;28;20472;-82
2022/05/31 09:41:34;;;;;;;2.20;2.00;;;20.70;75.10;;;;;;4979293;28;21029;-82
2022/05/31 09:44:09;;;;;;;3.40;2.10;;;20.80;74.50;;;;;;4979889;28;20458;-82
2022/05/31 09:46:41;;;;;;;2.47;2.20;;;21.10;74.00;;;;;;4979728;28;20529;-81
2022/05/31 09:49:24;;;;;;;2.83;2.50;;;21.30;71.90;;;;;;4979211;28;20459;-81
2022/05/31 09:51:52;;;;;;;2.03;1.93;;;21.70;70.60;;;;;;4978437;28;20451;-81
2022/05/31 09:57:22;;;;;;;2.13;2.03;;;21.80;68.00;;;;;;4985176;28;20566;-82
2022/05/31 09:59:53;;;;;;;2.77;2.60;;;21.90;66.80;;;;;;4985905;28;20494;-80
2022/05/31 10:02:29;;;;;;;2.33;2.13;;;21.70;66.90;;;;;;4984806;28;20536;-81
2022/05/31 10:05:23;;;;;;;3.37;2.20;;;21.80;67.40;;;;;;4973548;28;20451;-80
2022/05/31 10:07:50;;;;;;;3.30;1.90;;;21.90;63.30;;;;;;4958115;23;20509;-81
2022/05/31 10:10:27;;;;;;;2.10;2.00;;;21.90;62.30;;;;;;4948535;29;20454;-82
2022/05/31 10:12:56;;;;;;;2.10;1.70;;;22.10;58.70;;;;;;4946066;29;20454;-83
2022/05/31 10:15:51;;;;;;;2.37;2.23;;;22.30;59.70;;;;;;4954529;29;20446;-83
2022/05/31 10:18:29;;;;;;;2.60;1.60;;;22.50;59.10;;;;;;4931560;29;20485;-83
2022/05/31 10:20:58;;;;;;;3.63;2.17;;;22.50;56.50;;;;;;4954011;29;20565;-82
2022/05/31 10:23:33;;;;;;;1.77;1.67;;;22.30;56.60;;;;;;4955688;29;20454;-83
2022/05/31 10:26:01;;;;;;;3.20;1.97;;;22.40;56.70;;;;;;4955711;29;20462;-82
2022/05/31 10:28:30;;;;;;;2.23;2.00;;;22.30;57.00;;;;;;4955901;29;20473;-82
2022/05/31 10:31:15;;;;;;;3.00;2.20;;;22.50;58.40;;;;;;4955097;29;20461;-81
2022/05/31 10:33:52;;;;;;;1.80;1.70;;;22.50;58.30;;;;;;4936196;29;20485;-83
2022/05/31 10:36:22;;;;;;;4.50;1.93;;;22.50;57.80;;;;;;4939148;29;20489;-81
2022/05/31 10:38:50;;;;;;;1.93;1.70;;;22.50;58.20;;;;;;4953395;29;20466;-81
2022/05/31 10:41:24;;;;;;;2.10;1.73;;;22.80;56.70;;;;;;4955659;29;20484;-82
2022/05/31 10:43:53;;;;;;;1.90;1.80;;;23.10;56.40;;;;;;4953059;29;20461;-81
2022/05/31 10:46:26;;;;;;;3.27;1.80;;;22.80;56.70;;;;;;4952442;29;20457;-82
2022/05/31 10:48:55;;;;;;;2.70;1.90;;;22.70;57.20;;;;;;4953010;29;20843;-82
2022/05/31 10:51:40;;;;;;;2.57;2.00;;;22.70;56.30;;;;;;4952432;29;20454;-82
2022/05/31 10:54:20;;;;;;;3.47;2.43;;;22.70;60.20;;;;;;4952759;29;20468;-80
2022/05/31 10:56:58;;;;;;;3.63;2.77;;;22.10;64.40;;;;;;4935323;29;20464;-82
2022/05/31 10:59:30;;;;;;;3.03;2.83;;;22.00;64.20;;;;;;4934810;29;20500;-83
2022/05/31 11:02:23;;;;;;;2.63;2.43;;;22.00;65.50;;;;;;4949644;29;20458;-83
2022/05/31 11:04:57;;;;;;;3.17;2.87;;;22.20;67.10;;;;;;4950823;29;20936;-82
2022/05/31 11:07:36;;;;;;;2.90;2.53;;;22.60;66.40;;;;;;4951378;29;20518;-81
2022/05/31 11:13:15;;;;;;;3.23;2.67;;;23.10;64.60;;;;;;4949670;29;20883;-83
2022/05/31 11:15:49;;;;;;;4.00;3.17;;;23.10;64.00;;;;;;4951958;29;20454;-82
2022/05/31 11:18:40;;;;;;;3.23;3.03;;;23.60;63.50;;;;;;4951523;29;20478;-82
2022/05/31 11:21:17;;;;;;;3.37;3.17;;;24.00;62.60;;;;;;4951674;29;20501;-82
2022/05/31 11:23:54;;;;;;;3.37;3.17;;;24.50;59.90;;;;;;4952129;29;20894;-81
2022/05/31 11:26:35;;;;;;;2.70;2.60;;;24.50;59.70;;;;;;4946352;29;20882;-80
2022/05/31 11:29:20;;;;;;;4.07;3.67;;;24.70;59.90;;;;;;4952570;29;20482;-83
2022/05/31 11:31:54;;;;;;;3.67;3.37;;;24.40;58.70;;;;;;4947721;29;20475;-83
2022/05/31 11:34:31;;;;;;;4.70;3.30;;;24.50;59.20;;;;;;4951025;29;20455;-83
2022/05/31 11:37:23;;;;;;;3.77;2.93;;;24.80;59.50;;;;;;4951924;29;20487;-82
2022/05/31 11:40:01;;;;;;;2.50;2.40;;;25.00;59.20;;;;;;4940150;29;20489;-81
2022/05/31 11:42:49;;;;;;;3.97;3.57;;;25.30;58.10;;;;;;4942754;29;20465;-78
2022/05/31 11:45:24;;;;;;;2.80;2.60;;;25.30;57.70;;;;;;4952176;29;20455;-80
2022/05/31 11:48:11;;;;;;;3.17;2.97;;;25.30;56.00;;;;;;4952948;29;20481;-80
2022/05/31 11:50:46;;;;;;;3.20;3.00;;;24.70;55.40;;;;;;4946403;29;20457;-81
2022/05/31 11:53:45;;;;;;;2.43;2.33;;;24.50;58.00;;;;;;4950018;29;20455;-81
2022/05/31 11:56:20;;;;;;;2.50;2.30;;;24.90;56.30;;;;;;4932958;29;20452;-83
2022/05/31 11:58:51;;;;;;;3.43;2.80;;;25.30;54.10;;;;;;4949157;29;20479;-81
2022/05/31 12:01:23;;;;;;;3.30;2.00;;;25.10;53.80;;;;;;4950849;29;20504;-84
2022/05/31 12:03:57;;;;;;;2.33;1.90;;;24.90;55.00;;;;;;4951190;29;20461;-80
2022/05/31 12:06:33;;;;;;;2.40;2.20;;;24.20;53.70;;;;;;4951640;29;20465;-82
2022/05/31 12:09:07;;;;;;;2.73;2.53;;;24.30;56.00;;;;;;4952490;29;20492;-82
2022/05/31 12:11:38;;;;;;;2.50;2.40;;;24.30;54.30;;;;;;4950901;29;20442;-80
2022/05/31 12:14:09;;;;;;;3.37;2.70;;;24.20;54.60;;;;;;4948267;29;20461;-82
2022/05/31 12:16:37;;;;;;;2.17;2.03;;;24.10;55.60;;;;;;4947972;29;20549;-82
2022/05/31 12:19:15;;;;;;;2.43;2.20;;;23.80;54.60;;;;;;4948220;29;20482;-80
2022/05/31 12:21:47;;;;;;;4.57;2.70;;;23.70;55.30;;;;;;4947990;29;21014;-80
2022/05/31 12:24:18;;;;;;;2.63;2.43;;;23.60;55.30;;;;;;4948808;29;20544;-79
2022/05/31 12:26:52;;;;;;;3.83;2.27;;;23.30;55.20;;;;;;4940978;29;20464;-81
2022/05/31 12:29:24;;;;;;;2.30;2.10;;;23.30;55.00;;;;;;4947038;29;20477;-81
2022/05/31 12:31:53;;;;;;;2.20;2.03;;;23.20;55.50;;;;;;4948990;29;20457;-80
2022/05/31 12:34:43;;;;;;;3.13;2.73;;;23.00;54.20;;;;;;4945762;29;20461;-83
2022/05/31 12:37:13;;;;;;;2.20;2.10;;;22.50;54.80;;;;;;4942601;29;20458;-81
2022/05/31 12:39:44;;;;;;;2.37;2.27;;;22.50;55.20;;;;;;4944638;29;20461;-83
2022/05/31 12:42:39;;;;;;;2.73;2.17;;;22.80;56.20;;;;;;4942326;29;20453;-83
2022/05/31 12:45:28;;;;;;;2.77;2.57;;;22.80;55.00;;;;;;4942850;29;20831;-83
2022/05/31 12:47:58;;;;;;;2.73;2.53;;;22.80;55.80;;;;;;4942175;29;20468;-84
2022/05/31 12:50:45;;;;;;;2.57;1.80;;;23.30;54.40;;;;;;4942785;29;20638;-84
2022/05/31 12:53:22;;;;;;;2.23;2.07;;;23.60;52.70;;;;;;4943478;29;20927;-83
2022/05/31 12:55:57;;;;;;;3.53;2.80;;;23.60;53.90;;;;;;4944576;29;20507;-84
2022/05/31 12:58:45;;;;;;;2.50;2.40;;;23.50;53.80;;;;;;4943999;29;20537;-82
2022/05/31 13:01:33;;;;;;;2.07;1.87;;;23.60;53.00;;;;;;4942899;29;20489;-83
2022/05/31 13:04:17;;;;;;;2.20;2.00;;;23.60;53.00;;;;;;4947860;29;20464;-81
2022/05/31 13:07:07;;;;;;;2.00;1.80;;;24.00;52.90;;;;;;4946121;29;20461;-83
2022/05/31 13:09:40;;;;;;;1.80;1.70;;;24.80;53.80;;;;;;4951608;29;20459;-83
2022/05/31 13:20:39;;;;;;;2.33;2.13;;;26.00;49.40;;;;;;4946314;29;20492;-82
2022/05/31 13:23:14;;;;;;;2.57;2.37;;;26.80;47.80;;;;;;4948541;29;20521;-83
2022/05/31 13:25:47;;;;;;;1.53;1.43;;;27.30;46.60;;;;;;4946301;29;20449;-83
2022/05/31 13:28:26;;;;;;;2.20;2.00;;;27.60;45.70;;;;;;4946907;29;20483;-82
2022/05/31 13:30:58;;;;;;;2.40;2.10;;;27.00;44.90;;;;;;4946599;29;20471;-81
2022/05/31 13:33:26;;;;;;;2.30;2.20;;;27.20;45.60;;;;;;4944788;29;20825;-81
2022/05/31 13:36:09;;;;;;;4.30;2.00;;;27.50;44.90;;;;;;4946628;29;20468;-81
2022/05/31 13:38:38;;;;;;;2.47;1.70;;;27.50;43.90;;;;;;4947767;29;20477;-82